sensor_id;sensor_type;location;lat;lon;timestamp;P1;durP1;ratioP1;P2;durP2;ratioP2
19301;SDS011;9785;59.362;12.152;2022-09-04T00:01:36;2.73;;;2.53;;
19301;SDS011;9785;59.362;12.152;2022-09-04T00:04:12;4.00;;;2.43;;
19301;SDS011;9785;59.362;12.152;2022-09-04T00:06:46;2.50;;;2.30;;
19301;SDS011;9785;59.362;12.152;2022-09-04T00:09:18;2.33;;;2.23;;
19301;SDS011;9785;59.362;12.152;2022-09-04T00:11:51;2.30;;;2.20;;
19301;SDS011;9785;59.362;12.152;2022-09-04T00:14:22;2.43;;;1.90;;
19301;SDS011;9785;59.362;12.152;2022-09-04T00:16:55;2.20;;;2.10;;
19301;SDS011;9785;59.362;12.152;2022-09-04T00:19:29;2.13;;;1.90;;
19301;SDS011;9785;59.362;12.152;2022-09-04T00:22:02;1.80;;;1.80;;
19301;SDS011;9785;59.362;12.152;2022-09-04T00:24:34;1.93;;;1.83;;
19301;SDS011;9785;59.362;12.152;2022-09-04T00:27:04;1.50;;;1.50;;
19301;SDS011;9785;59.362;12.152;2022-09-04T00:29:38;1.70;;;1.70;;
19301;SDS011;9785;59.362;12.152;2022-09-04T00:32:17;1.93;;;1.83;;
19301;SDS011;9785;59.362;12.152;2022-09-04T00:34:52;1.57;;;1.57;;
19301;SDS011;9785;59.362;12.152;2022-09-04T00:37:25;1.87;;;1.77;;
19301;SDS011;9785;59.362;12.152;2022-09-04T00:39:56;2.17;;;1.50;;
19301;SDS011;9785;59.362;12.152;2022-09-04T00:42:39;1.63;;;1.60;;
19301;SDS011;9785;59.362;12.152;2022-09-04T00:45:18;1.90;;;1.80;;
19301;SDS011;9785;59.362;12.152;2022-09-04T00:48:02;2.00;;;1.90;;
19301;SDS011;9785;59.362;12.152;2022-09-04T00:50:35;1.83;;;1.73;;
19301;SDS011;9785;59.362;12.152;2022-09-04T00:53:11;1.90;;;1.80;;
19301;SDS011;9785;59.362;12.152;2022-09-04T00:55:48;1.90;;;1.80;;
19301;SDS011;9785;59.362;12.152;2022-09-04T00:58:22;2.10;;;1.90;;
19301;SDS011;9785;59.362;12.152;2022-09-04T01:00:54;2.00;;;1.90;;
19301;SDS011;9785;59.362;12.152;2022-09-04T01:03:33;2.03;;;1.93;;
19301;SDS011;9785;59.362;12.152;2022-09-04T01:09:00;2.10;;;2.00;;
19301;SDS011;9785;59.362;12.152;2022-09-04T01:11:35;1.87;;;1.77;;
19301;SDS011;9785;59.362;12.152;2022-09-04T01:14:08;2.40;;;2.10;;
19301;SDS011;9785;59.362;12.152;2022-09-04T01:16:40;2.20;;;2.10;;
19301;SDS011;9785;59.362;12.152;2022-09-04T01:19:15;2.07;;;1.97;;
19301;SDS011;9785;59.362;12.152;2022-09-04T01:21:56;3.10;;;2.07;;
19301;SDS011;9785;59.362;12.152;2022-09-04T01:24:37;2.13;;;2.03;;
19301;SDS011;9785;59.362;12.152;2022-09-04T01:27:10;2.20;;;1.90;;
19301;SDS011;9785;59.362;12.152;2022-09-04T01:29:43;2.10;;;2.00;;
19301;SDS011;9785;59.362;12.152;2022-09-04T01:32:19;2.00;;;1.90;;
19301;SDS011;9785;59.362;12.152;2022-09-04T01:34:52;2.00;;;1.70;;
19301;SDS011;9785;59.362;12.152;2022-09-04T01:37:29;2.13;;;1.97;;
19301;SDS011;9785;59.362;12.152;2022-09-04T01:40:03;2.00;;;1.80;;
19301;SDS011;9785;59.362;12.152;2022-09-04T01:42:38;1.87;;;1.70;;
19301;SDS011;9785;59.362;12.152;2022-09-04T01:45:09;1.83;;;1.70;;
19301;SDS011;9785;59.362;12.152;2022-09-04T01:47:40;2.00;;;1.90;;
19301;SDS011;9785;59.362;12.152;2022-09-04T01:50:11;2.10;;;1.97;;
19301;SDS011;9785;59.362;12.152;2022-09-04T01:52:43;1.67;;;1.57;;
19301;SDS011;9785;59.362;12.152;2022-09-04T01:55:17;1.73;;;1.70;;
19301;SDS011;9785;59.362;12.152;2022-09-04T01:57:55;3.43;;;1.80;;
19301;SDS011;9785;59.362;12.152;2022-09-04T02:00:26;2.80;;;1.90;;
19301;SDS011;9785;59.362;12.152;2022-09-04T02:02:58;1.93;;;1.83;;
19301;SDS011;9785;59.362;12.152;2022-09-04T02:05:30;1.80;;;1.70;;
19301;SDS011;9785;59.362;12.152;2022-09-04T02:08:08;2.23;;;1.83;;
19301;SDS011;9785;59.362;12.152;2022-09-04T02:10:42;2.10;;;2.00;;
19301;SDS011;9785;59.362;12.152;2022-09-04T02:13:15;2.30;;;2.20;;
19301;SDS011;9785;59.362;12.152;2022-09-04T02:15:53;2.17;;;2.00;;
19301;SDS011;9785;59.362;12.152;2022-09-04T02:18:28;2.60;;;2.20;;
19301;SDS011;9785;59.362;12.152;2022-09-04T02:21:04;2.00;;;1.90;;
19301;SDS011;9785;59.362;12.152;2022-09-04T02:23:35;3.80;;;2.33;;
19301;SDS011;9785;59.362;12.152;2022-09-04T02:26:08;2.07;;;1.80;;
19301;SDS011;9785;59.362;12.152;2022-09-04T02:28:45;1.70;;;1.60;;
19301;SDS011;9785;59.362;12.152;2022-09-04T02:31:19;2.00;;;1.90;;
19301;SDS011;9785;59.362;12.152;2022-09-04T02:33:50;1.77;;;1.67;;
19301;SDS011;9785;59.362;12.152;2022-09-04T02:36:22;1.57;;;1.57;;
19301;SDS011;9785;59.362;12.152;2022-09-04T02:38:53;3.17;;;1.90;;
19301;SDS011;9785;59.362;12.152;2022-09-04T02:41:28;2.80;;;1.87;;
19301;SDS011;9785;59.362;12.152;2022-09-04T02:44:12;1.67;;;1.57;;
19301;SDS011;9785;59.362;12.152;2022-09-04T02:46:48;1.53;;;1.43;;
19301;SDS011;9785;59.362;12.152;2022-09-04T02:49:23;2.27;;;1.37;;
19301;SDS011;9785;59.362;12.152;2022-09-04T02:51:59;1.90;;;1.53;;
19301;SDS011;9785;59.362;12.152;2022-09-04T02:54:39;1.43;;;1.33;;
19301;SDS011;9785;59.362;12.152;2022-09-04T02:57:13;1.50;;;1.40;;
19301;SDS011;9785;59.362;12.152;2022-09-04T02:59:50;1.50;;;1.40;;
19301;SDS011;9785;59.362;12.152;2022-09-04T03:02:26;1.40;;;1.23;;
19301;SDS011;9785;59.362;12.152;2022-09-04T03:04:58;1.37;;;1.10;;
19301;SDS011;9785;59.362;12.152;2022-09-04T03:07:30;3.70;;;1.37;;
19301;SDS011;9785;59.362;12.152;2022-09-04T03:10:02;1.20;;;1.20;;
19301;SDS011;9785;59.362;12.152;2022-09-04T03:12:34;3.50;;;1.40;;
19301;SDS011;9785;59.362;12.152;2022-09-04T03:15:08;1.30;;;1.20;;
19301;SDS011;9785;59.362;12.152;2022-09-04T03:17:41;1.63;;;1.20;;
19301;SDS011;9785;59.362;12.152;2022-09-04T03:20:13;1.63;;;1.20;;
19301;SDS011;9785;59.362;12.152;2022-09-04T03:22:44;1.40;;;1.30;;
19301;SDS011;9785;59.362;12.152;2022-09-04T03:25:27;1.13;;;1.13;;
19301;SDS011;9785;59.362;12.152;2022-09-04T03:28:00;1.30;;;1.20;;
19301;SDS011;9785;59.362;12.152;2022-09-04T03:30:31;1.30;;;1.30;;
19301;SDS011;9785;59.362;12.152;2022-09-04T03:33:02;1.40;;;1.30;;
19301;SDS011;9785;59.362;12.152;2022-09-04T03:35:34;1.63;;;1.20;;
19301;SDS011;9785;59.362;12.152;2022-09-04T03:38:07;1.30;;;1.20;;
19301;SDS011;9785;59.362;12.152;2022-09-04T03:40:38;3.40;;;1.40;;
19301;SDS011;9785;59.362;12.152;2022-09-04T03:43:12;1.10;;;1.10;;
19301;SDS011;9785;59.362;12.152;2022-09-04T03:45:45;2.10;;;1.40;;
19301;SDS011;9785;59.362;12.152;2022-09-04T03:48:20;1.53;;;1.43;;
19301;SDS011;9785;59.362;12.152;2022-09-04T03:50:53;1.17;;;1.13;;
19301;SDS011;9785;59.362;12.152;2022-09-04T03:53:26;1.40;;;1.40;;
19301;SDS011;9785;59.362;12.152;2022-09-04T03:56:12;1.63;;;1.37;;
19301;SDS011;9785;59.362;12.152;2022-09-04T03:58:45;1.37;;;1.27;;
19301;SDS011;9785;59.362;12.152;2022-09-04T04:01:18;1.70;;;1.60;;
19301;SDS011;9785;59.362;12.152;2022-09-04T04:03:54;1.57;;;1.33;;
19301;SDS011;9785;59.362;12.152;2022-09-04T04:06:26;1.70;;;1.60;;
19301;SDS011;9785;59.362;12.152;2022-09-04T04:09:03;1.70;;;1.60;;
19301;SDS011;9785;59.362;12.152;2022-09-04T04:11:43;1.40;;;1.40;;
19301;SDS011;9785;59.362;12.152;2022-09-04T04:14:26;1.50;;;1.50;;
19301;SDS011;9785;59.362;12.152;2022-09-04T04:17:07;1.60;;;1.50;;
19301;SDS011;9785;59.362;12.152;2022-09-04T04:19:46;1.90;;;1.30;;
19301;SDS011;9785;59.362;12.152;2022-09-04T04:22:35;2.00;;;1.40;;
19301;SDS011;9785;59.362;12.152;2022-09-04T04:25:14;1.37;;;1.30;;
19301;SDS011;9785;59.362;12.152;2022-09-04T04:27:50;1.40;;;1.30;;
19301;SDS011;9785;59.362;12.152;2022-09-04T04:30:21;1.30;;;1.30;;
19301;SDS011;9785;59.362;12.152;2022-09-04T04:33:03;1.40;;;1.40;;
19301;SDS011;9785;59.362;12.152;2022-09-04T04:35:39;1.83;;;1.73;;
19301;SDS011;9785;59.362;12.152;2022-09-04T04:38:23;3.77;;;1.60;;
19301;SDS011;9785;59.362;12.152;2022-09-04T04:41:04;2.90;;;1.50;;
19301;SDS011;9785;59.362;12.152;2022-09-04T04:43:40;2.10;;;1.57;;
19301;SDS011;9785;59.362;12.152;2022-09-04T04:46:12;1.40;;;1.40;;
19301;SDS011;9785;59.362;12.152;2022-09-04T04:49:02;1.60;;;1.50;;
19301;SDS011;9785;59.362;12.152;2022-09-04T04:51:40;1.87;;;1.77;;
19301;SDS011;9785;59.362;12.152;2022-09-04T04:54:18;1.67;;;1.57;;
19301;SDS011;9785;59.362;12.152;2022-09-04T04:56:49;3.43;;;1.43;;
19301;SDS011;9785;59.362;12.152;2022-09-04T04:59:20;1.70;;;1.50;;
19301;SDS011;9785;59.362;12.152;2022-09-04T05:01:55;4.50;;;1.80;;
19301;SDS011;9785;59.362;12.152;2022-09-04T05:04:30;2.03;;;1.93;;
19301;SDS011;9785;59.362;12.152;2022-09-04T05:07:05;4.83;;;2.63;;
19301;SDS011;9785;59.362;12.152;2022-09-04T05:09:35;3.00;;;2.80;;
19301;SDS011;9785;59.362;12.152;2022-09-04T05:12:05;3.97;;;3.67;;
19301;SDS011;9785;59.362;12.152;2022-09-04T05:14:37;4.23;;;3.30;;
19301;SDS011;9785;59.362;12.152;2022-09-04T05:17:13;4.60;;;3.80;;
19301;SDS011;9785;59.362;12.152;2022-09-04T05:19:48;4.07;;;3.77;;
19301;SDS011;9785;59.362;12.152;2022-09-04T05:22:20;4.13;;;3.80;;
19301;SDS011;9785;59.362;12.152;2022-09-04T05:24:54;4.30;;;3.63;;
19301;SDS011;9785;59.362;12.152;2022-09-04T05:27:34;6.87;;;3.40;;
19301;SDS011;9785;59.362;12.152;2022-09-04T05:30:07;4.37;;;2.80;;
19301;SDS011;9785;59.362;12.152;2022-09-04T05:32:38;3.23;;;2.93;;
19301;SDS011;9785;59.362;12.152;2022-09-04T05:35:11;3.00;;;2.80;;
19301;SDS011;9785;59.362;12.152;2022-09-04T05:37:41;3.00;;;2.80;;
19301;SDS011;9785;59.362;12.152;2022-09-04T05:40:14;4.23;;;3.00;;
19301;SDS011;9785;59.362;12.152;2022-09-04T05:42:54;3.27;;;2.97;;
19301;SDS011;9785;59.362;12.152;2022-09-04T05:45:27;3.50;;;3.20;;
19301;SDS011;9785;59.362;12.152;2022-09-04T05:48:00;2.80;;;2.60;;
19301;SDS011;9785;59.362;12.152;2022-09-04T05:50:39;2.90;;;2.70;;
19301;SDS011;9785;59.362;12.152;2022-09-04T05:53:24;5.17;;;2.57;;
19301;SDS011;9785;59.362;12.152;2022-09-04T05:56:10;3.50;;;2.60;;
19301;SDS011;9785;59.362;12.152;2022-09-04T05:58:47;2.70;;;2.50;;
19301;SDS011;9785;59.362;12.152;2022-09-04T06:01:22;2.83;;;2.63;;
19301;SDS011;9785;59.362;12.152;2022-09-04T06:04:04;3.07;;;2.87;;
19301;SDS011;9785;59.362;12.152;2022-09-04T06:06:41;3.13;;;2.93;;
19301;SDS011;9785;59.362;12.152;2022-09-04T06:09:17;2.97;;;2.77;;
19301;SDS011;9785;59.362;12.152;2022-09-04T06:11:52;3.00;;;2.80;;
19301;SDS011;9785;59.362;12.152;2022-09-04T06:14:26;3.63;;;2.70;;
19301;SDS011;9785;59.362;12.152;2022-09-04T06:17:05;2.67;;;2.47;;
19301;SDS011;9785;59.362;12.152;2022-09-04T06:19:51;2.93;;;2.73;;
19301;SDS011;9785;59.362;12.152;2022-09-04T06:22:29;2.57;;;2.40;;
19301;SDS011;9785;59.362;12.152;2022-09-04T06:25:11;2.70;;;2.50;;
19301;SDS011;9785;59.362;12.152;2022-09-04T06:27:46;2.53;;;2.40;;
19301;SDS011;9785;59.362;12.152;2022-09-04T06:30:18;2.60;;;2.50;;
19301;SDS011;9785;59.362;12.152;2022-09-04T06:35:36;2.30;;;2.20;;
19301;SDS011;9785;59.362;12.152;2022-09-04T06:38:14;2.30;;;2.20;;
19301;SDS011;9785;59.362;12.152;2022-09-04T06:40:49;2.60;;;2.40;;
19301;SDS011;9785;59.362;12.152;2022-09-04T06:43:23;2.70;;;2.50;;
19301;SDS011;9785;59.362;12.152;2022-09-04T06:45:56;2.50;;;2.30;;
19301;SDS011;9785;59.362;12.152;2022-09-04T06:48:34;2.30;;;2.20;;
19301;SDS011;9785;59.362;12.152;2022-09-04T06:51:12;2.40;;;2.30;;
19301;SDS011;9785;59.362;12.152;2022-09-04T06:53:48;2.87;;;2.30;;
19301;SDS011;9785;59.362;12.152;2022-09-04T06:56:27;2.60;;;2.50;;
19301;SDS011;9785;59.362;12.152;2022-09-04T06:59:09;2.30;;;2.20;;
19301;SDS011;9785;59.362;12.152;2022-09-04T07:01:44;2.23;;;2.13;;
19301;SDS011;9785;59.362;12.152;2022-09-04T07:04:18;2.23;;;2.07;;
19301;SDS011;9785;59.362;12.152;2022-09-04T07:06:51;2.20;;;2.10;;
19301;SDS011;9785;59.362;12.152;2022-09-04T07:09:24;2.10;;;2.00;;
19301;SDS011;9785;59.362;12.152;2022-09-04T07:12:00;1.80;;;1.80;;
19301;SDS011;9785;59.362;12.152;2022-09-04T07:14:34;3.27;;;1.80;;
19301;SDS011;9785;59.362;12.152;2022-09-04T07:17:10;1.90;;;1.80;;
19301;SDS011;9785;59.362;12.152;2022-09-04T07:19:47;2.10;;;2.00;;
19301;SDS011;9785;59.362;12.152;2022-09-04T07:22:22;2.10;;;2.00;;
19301;SDS011;9785;59.362;12.152;2022-09-04T07:25:02;2.03;;;1.93;;
19301;SDS011;9785;59.362;12.152;2022-09-04T07:27:35;1.90;;;1.80;;
19301;SDS011;9785;59.362;12.152;2022-09-04T07:30:06;2.20;;;2.10;;
19301;SDS011;9785;59.362;12.152;2022-09-04T07:32:36;1.80;;;1.80;;
19301;SDS011;9785;59.362;12.152;2022-09-04T07:35:09;1.90;;;1.80;;
19301;SDS011;9785;59.362;12.152;2022-09-04T07:37:42;2.10;;;2.00;;
19301;SDS011;9785;59.362;12.152;2022-09-04T07:40:15;2.10;;;2.00;;
19301;SDS011;9785;59.362;12.152;2022-09-04T07:42:46;2.20;;;1.90;;
19301;SDS011;9785;59.362;12.152;2022-09-04T07:45:28;2.10;;;1.90;;
19301;SDS011;9785;59.362;12.152;2022-09-04T07:48:04;1.90;;;1.80;;
19301;SDS011;9785;59.362;12.152;2022-09-04T07:50:35;1.87;;;1.77;;
19301;SDS011;9785;59.362;12.152;2022-09-04T07:53:22;1.80;;;1.70;;
19301;SDS011;9785;59.362;12.152;2022-09-04T07:55:55;2.07;;;1.90;;
19301;SDS011;9785;59.362;12.152;2022-09-04T07:58:33;2.00;;;1.90;;
19301;SDS011;9785;59.362;12.152;2022-09-04T08:01:10;1.97;;;1.80;;
19301;SDS011;9785;59.362;12.152;2022-09-04T08:03:48;2.00;;;1.70;;
19301;SDS011;9785;59.362;12.152;2022-09-04T08:06:23;2.00;;;1.90;;
19301;SDS011;9785;59.362;12.152;2022-09-04T08:08:57;1.50;;;1.50;;
19301;SDS011;9785;59.362;12.152;2022-09-04T08:11:45;1.80;;;1.70;;
19301;SDS011;9785;59.362;12.152;2022-09-04T08:14:19;1.73;;;1.60;;
19301;SDS011;9785;59.362;12.152;2022-09-04T08:16:49;1.60;;;1.50;;
19301;SDS011;9785;59.362;12.152;2022-09-04T08:19:25;1.40;;;1.40;;
19301;SDS011;9785;59.362;12.152;2022-09-04T08:21:58;1.90;;;1.80;;
19301;SDS011;9785;59.362;12.152;2022-09-04T08:27:17;1.90;;;1.80;;
19301;SDS011;9785;59.362;12.152;2022-09-04T08:29:52;1.80;;;1.80;;
19301;SDS011;9785;59.362;12.152;2022-09-04T08:32:45;1.97;;;1.80;;
19301;SDS011;9785;59.362;12.152;2022-09-04T08:35:18;1.93;;;1.73;;
19301;SDS011;9785;59.362;12.152;2022-09-04T08:37:55;1.93;;;1.83;;
19301;SDS011;9785;59.362;12.152;2022-09-04T08:43:27;1.63;;;1.53;;
19301;SDS011;9785;59.362;12.152;2022-09-04T08:46:05;1.73;;;1.63;;
19301;SDS011;9785;59.362;12.152;2022-09-04T08:48:48;1.77;;;1.67;;
19301;SDS011;9785;59.362;12.152;2022-09-04T08:56:56;2.00;;;1.90;;
19301;SDS011;9785;59.362;12.152;2022-09-04T08:59:38;3.50;;;2.10;;
19301;SDS011;9785;59.362;12.152;2022-09-04T09:02:18;2.77;;;2.57;;
19301;SDS011;9785;59.362;12.152;2022-09-04T09:07:45;2.00;;;1.90;;
19301;SDS011;9785;59.362;12.152;2022-09-04T09:16:06;1.70;;;1.60;;
19301;SDS011;9785;59.362;12.152;2022-09-04T09:18:47;1.40;;;1.40;;
19301;SDS011;9785;59.362;12.152;2022-09-04T09:21:27;1.47;;;1.47;;
19301;SDS011;9785;59.362;12.152;2022-09-04T09:24:18;1.50;;;1.40;;
19301;SDS011;9785;59.362;12.152;2022-09-04T09:26:52;1.50;;;1.40;;
19301;SDS011;9785;59.362;12.152;2022-09-04T09:29:39;1.87;;;1.53;;
19301;SDS011;9785;59.362;12.152;2022-09-04T09:37:50;1.37;;;1.37;;
19301;SDS011;9785;59.362;12.152;2022-09-04T09:43:29;1.20;;;1.20;;
19301;SDS011;9785;59.362;12.152;2022-09-04T09:51:44;1.67;;;1.20;;
19301;SDS011;9785;59.362;12.152;2022-09-04T09:54:46;1.07;;;1.03;;
19301;SDS011;9785;59.362;12.152;2022-09-04T10:00:12;1.20;;;1.20;;
19301;SDS011;9785;59.362;12.152;2022-09-04T10:08:25;1.23;;;1.10;;
19301;SDS011;9785;59.362;12.152;2022-09-04T10:14:00;1.17;;;1.10;;
19301;SDS011;9785;59.362;12.152;2022-09-04T10:16:40;1.20;;;1.20;;
19301;SDS011;9785;59.362;12.152;2022-09-04T10:19:17;1.43;;;1.10;;
19301;SDS011;9785;59.362;12.152;2022-09-04T10:22:06;1.40;;;1.30;;
19301;SDS011;9785;59.362;12.152;2022-09-04T10:24:45;2.70;;;1.47;;
19301;SDS011;9785;59.362;12.152;2022-09-04T10:27:24;3.80;;;1.40;;
19301;SDS011;9785;59.362;12.152;2022-09-04T10:30:01;1.53;;;1.27;;
19301;SDS011;9785;59.362;12.152;2022-09-04T10:32:35;2.10;;;1.20;;
19301;SDS011;9785;59.362;12.152;2022-09-04T10:37:56;1.03;;;1.03;;
19301;SDS011;9785;59.362;12.152;2022-09-04T10:40:31;1.20;;;1.20;;
19301;SDS011;9785;59.362;12.152;2022-09-04T10:43:16;1.40;;;1.30;;
19301;SDS011;9785;59.362;12.152;2022-09-04T10:45:55;1.40;;;1.30;;
19301;SDS011;9785;59.362;12.152;2022-09-04T10:48:49;1.20;;;1.13;;
19301;SDS011;9785;59.362;12.152;2022-09-04T10:51:24;1.70;;;1.13;;
19301;SDS011;9785;59.362;12.152;2022-09-04T10:56:48;1.17;;;1.17;;
19301;SDS011;9785;59.362;12.152;2022-09-04T10:59:26;1.20;;;1.20;;
19301;SDS011;9785;59.362;12.152;2022-09-04T11:02:11;1.27;;;1.17;;
19301;SDS011;9785;59.362;12.152;2022-09-04T11:05:00;1.10;;;1.10;;
19301;SDS011;9785;59.362;12.152;2022-09-04T11:10:30;1.00;;;1.00;;
19301;SDS011;9785;59.362;12.152;2022-09-04T11:15:59;6.37;;;4.60;;
19301;SDS011;9785;59.362;12.152;2022-09-04T11:21:54;3.20;;;2.83;;
19301;SDS011;9785;59.362;12.152;2022-09-04T11:30:09;2.60;;;1.93;;
19301;SDS011;9785;59.362;12.152;2022-09-04T11:32:42;2.83;;;2.13;;
19301;SDS011;9785;59.362;12.152;2022-09-04T11:38:08;2.00;;;1.90;;
19301;SDS011;9785;59.362;12.152;2022-09-04T11:40:53;1.20;;;1.20;;
19301;SDS011;9785;59.362;12.152;2022-09-04T11:43:28;1.93;;;1.77;;
19301;SDS011;9785;59.362;12.152;2022-09-04T11:46:07;1.60;;;1.20;;
19301;SDS011;9785;59.362;12.152;2022-09-04T11:48:57;1.50;;;1.40;;
19301;SDS011;9785;59.362;12.152;2022-09-04T11:51:46;1.50;;;1.40;;
19301;SDS011;9785;59.362;12.152;2022-09-04T11:54:28;1.53;;;1.43;;
19301;SDS011;9785;59.362;12.152;2022-09-04T11:57:06;1.93;;;1.50;;
19301;SDS011;9785;59.362;12.152;2022-09-04T11:59:42;2.73;;;1.70;;
19301;SDS011;9785;59.362;12.152;2022-09-04T12:05:15;2.40;;;1.60;;
19301;SDS011;9785;59.362;12.152;2022-09-04T12:07:51;1.50;;;1.50;;
19301;SDS011;9785;59.362;12.152;2022-09-04T12:10:34;2.03;;;1.60;;
19301;SDS011;9785;59.362;12.152;2022-09-04T12:13:15;2.67;;;2.07;;
19301;SDS011;9785;59.362;12.152;2022-09-04T12:18:35;2.00;;;1.90;;
19301;SDS011;9785;59.362;12.152;2022-09-04T12:21:16;1.40;;;1.40;;
19301;SDS011;9785;59.362;12.152;2022-09-04T12:24:08;2.13;;;2.03;;
19301;SDS011;9785;59.362;12.152;2022-09-04T12:26:46;1.63;;;1.33;;
19301;SDS011;9785;59.362;12.152;2022-09-04T12:29:36;2.17;;;1.98;;
19301;SDS011;9785;59.362;12.152;2022-09-04T12:32:14;2.93;;;1.80;;
19301;SDS011;9785;59.362;12.152;2022-09-04T12:34:52;2.77;;;1.80;;
19301;SDS011;9785;59.362;12.152;2022-09-04T12:37:32;1.50;;;1.50;;
19301;SDS011;9785;59.362;12.152;2022-09-04T12:40:16;2.87;;;1.50;;
19301;SDS011;9785;59.362;12.152;2022-09-04T12:42:55;1.40;;;1.30;;
19301;SDS011;9785;59.362;12.152;2022-09-04T12:45:29;3.17;;;1.90;;
19301;SDS011;9785;59.362;12.152;2022-09-04T12:48:01;1.93;;;1.70;;
19301;SDS011;9785;59.362;12.152;2022-09-04T12:50:37;3.90;;;1.47;;
19301;SDS011;9785;59.362;12.152;2022-09-04T12:53:20;1.60;;;1.50;;
19301;SDS011;9785;59.362;12.152;2022-09-04T12:55:54;2.87;;;2.40;;
19301;SDS011;9785;59.362;12.152;2022-09-04T12:58:31;1.60;;;1.50;;
19301;SDS011;9785;59.362;12.152;2022-09-04T13:01:06;1.40;;;1.37;;
19301;SDS011;9785;59.362;12.152;2022-09-04T13:03:44;2.07;;;1.97;;
19301;SDS011;9785;59.362;12.152;2022-09-04T13:06:19;2.27;;;1.60;;
19301;SDS011;9785;59.362;12.152;2022-09-04T13:08:53;1.93;;;1.80;;
19301;SDS011;9785;59.362;12.152;2022-09-04T13:11:26;1.40;;;1.40;;
19301;SDS011;9785;59.362;12.152;2022-09-04T13:14:08;2.17;;;1.60;;
19301;SDS011;9785;59.362;12.152;2022-09-04T13:16:42;1.70;;;1.60;;
19301;SDS011;9785;59.362;12.152;2022-09-04T13:19:13;2.03;;;1.53;;
19301;SDS011;9785;59.362;12.152;2022-09-04T13:21:53;2.17;;;2.00;;
19301;SDS011;9785;59.362;12.152;2022-09-04T13:24:29;1.87;;;1.77;;
19301;SDS011;9785;59.362;12.152;2022-09-04T13:27:10;1.80;;;1.70;;
19301;SDS011;9785;59.362;12.152;2022-09-04T13:29:46;1.70;;;1.60;;
19301;SDS011;9785;59.362;12.152;2022-09-04T13:32:29;1.73;;;1.63;;
19301;SDS011;9785;59.362;12.152;2022-09-04T13:35:04;1.40;;;1.40;;
19301;SDS011;9785;59.362;12.152;2022-09-04T13:37:35;1.30;;;1.30;;
19301;SDS011;9785;59.362;12.152;2022-09-04T13:40:17;1.60;;;1.50;;
19301;SDS011;9785;59.362;12.152;2022-09-04T13:45:33;1.40;;;1.40;;
19301;SDS011;9785;59.362;12.152;2022-09-04T13:48:07;2.63;;;1.73;;
19301;SDS011;9785;59.362;12.152;2022-09-04T13:50:39;1.60;;;1.50;;
19301;SDS011;9785;59.362;12.152;2022-09-04T13:53:10;2.13;;;1.60;;
19301;SDS011;9785;59.362;12.152;2022-09-04T13:55:43;1.57;;;1.40;;
19301;SDS011;9785;59.362;12.152;2022-09-04T13:58:16;1.43;;;1.33;;
19301;SDS011;9785;59.362;12.152;2022-09-04T14:00:48;1.50;;;1.50;;
19301;SDS011;9785;59.362;12.152;2022-09-04T14:03:28;1.70;;;1.40;;
19301;SDS011;9785;59.362;12.152;2022-09-04T14:05:58;1.80;;;1.70;;
19301;SDS011;9785;59.362;12.152;2022-09-04T14:08:27;1.50;;;1.40;;
19301;SDS011;9785;59.362;12.152;2022-09-04T14:13:48;1.57;;;1.47;;
19301;SDS011;9785;59.362;12.152;2022-09-04T14:16:23;1.50;;;1.43;;
19301;SDS011;9785;59.362;12.152;2022-09-04T14:18:56;1.30;;;1.30;;
19301;SDS011;9785;59.362;12.152;2022-09-04T14:21:43;1.23;;;1.23;;
19301;SDS011;9785;59.362;12.152;2022-09-04T14:24:13;1.43;;;1.33;;
19301;SDS011;9785;59.362;12.152;2022-09-04T14:26:47;2.20;;;1.40;;
19301;SDS011;9785;59.362;12.152;2022-09-04T14:29:20;2.50;;;1.50;;
19301;SDS011;9785;59.362;12.152;2022-09-04T14:31:58;2.13;;;1.33;;
19301;SDS011;9785;59.362;12.152;2022-09-04T14:34:33;1.47;;;1.47;;
19301;SDS011;9785;59.362;12.152;2022-09-04T14:37:06;1.87;;;1.13;;
19301;SDS011;9785;59.362;12.152;2022-09-04T14:39:41;1.40;;;1.40;;
19301;SDS011;9785;59.362;12.152;2022-09-04T14:42:18;2.30;;;1.47;;
19301;SDS011;9785;59.362;12.152;2022-09-04T14:44:57;1.23;;;1.23;;
19301;SDS011;9785;59.362;12.152;2022-09-04T14:47:32;1.50;;;1.40;;
19301;SDS011;9785;59.362;12.152;2022-09-04T14:50:05;1.40;;;1.40;;
19301;SDS011;9785;59.362;12.152;2022-09-04T14:52:37;1.77;;;1.13;;
19301;SDS011;9785;59.362;12.152;2022-09-04T14:55:07;1.30;;;1.20;;
19301;SDS011;9785;59.362;12.152;2022-09-04T14:57:40;1.40;;;1.30;;
19301;SDS011;9785;59.362;12.152;2022-09-04T15:00:12;1.33;;;1.20;;
19301;SDS011;9785;59.362;12.152;2022-09-04T15:02:44;1.40;;;1.30;;
19301;SDS011;9785;59.362;12.152;2022-09-04T15:05:16;1.30;;;1.20;;
19301;SDS011;9785;59.362;12.152;2022-09-04T15:07:51;1.33;;;1.27;;
19301;SDS011;9785;59.362;12.152;2022-09-04T15:10:23;1.53;;;1.27;;
19301;SDS011;9785;59.362;12.152;2022-09-04T15:12:54;1.00;;;1.00;;
19301;SDS011;9785;59.362;12.152;2022-09-04T15:15:28;1.43;;;1.43;;
19301;SDS011;9785;59.362;12.152;2022-09-04T15:18:01;1.30;;;1.30;;
19301;SDS011;9785;59.362;12.152;2022-09-04T15:20:36;2.37;;;1.20;;
19301;SDS011;9785;59.362;12.152;2022-09-04T15:23:10;1.90;;;1.27;;
19301;SDS011;9785;59.362;12.152;2022-09-04T15:25:45;3.23;;;1.10;;
19301;SDS011;9785;59.362;12.152;2022-09-04T15:28:26;1.30;;;1.20;;
19301;SDS011;9785;59.362;12.152;2022-09-04T15:30:58;1.10;;;1.10;;
19301;SDS011;9785;59.362;12.152;2022-09-04T15:33:29;1.27;;;1.17;;
19301;SDS011;9785;59.362;12.152;2022-09-04T15:36:00;1.30;;;1.20;;
19301;SDS011;9785;59.362;12.152;2022-09-04T15:38:30;3.03;;;1.23;;
19301;SDS011;9785;59.362;12.152;2022-09-04T15:41:01;1.03;;;1.03;;
19301;SDS011;9785;59.362;12.152;2022-09-04T15:43:44;1.23;;;1.23;;
19301;SDS011;9785;59.362;12.152;2022-09-04T15:46:19;1.10;;;1.10;;
19301;SDS011;9785;59.362;12.152;2022-09-04T15:48:52;1.20;;;1.20;;
19301;SDS011;9785;59.362;12.152;2022-09-04T15:51:25;1.60;;;1.50;;
19301;SDS011;9785;59.362;12.152;2022-09-04T15:56:58;1.50;;;1.40;;
19301;SDS011;9785;59.362;12.152;2022-09-04T15:59:30;1.20;;;1.20;;
19301;SDS011;9785;59.362;12.152;2022-09-04T16:02:01;1.13;;;1.13;;
19301;SDS011;9785;59.362;12.152;2022-09-04T16:04:41;1.60;;;1.50;;
19301;SDS011;9785;59.362;12.152;2022-09-04T16:10:02;1.60;;;1.17;;
19301;SDS011;9785;59.362;12.152;2022-09-04T16:12:32;1.40;;;1.30;;
19301;SDS011;9785;59.362;12.152;2022-09-04T16:15:03;1.30;;;1.30;;
19301;SDS011;9785;59.362;12.152;2022-09-04T16:17:37;1.07;;;1.07;;
19301;SDS011;9785;59.362;12.152;2022-09-04T16:20:10;1.30;;;1.03;;
19301;SDS011;9785;59.362;12.152;2022-09-04T16:22:40;2.17;;;1.03;;
19301;SDS011;9785;59.362;12.152;2022-09-04T16:25:19;1.13;;;1.13;;
19301;SDS011;9785;59.362;12.152;2022-09-04T16:27:54;1.43;;;1.20;;
19301;SDS011;9785;59.362;12.152;2022-09-04T16:30:34;1.27;;;1.27;;
19301;SDS011;9785;59.362;12.152;2022-09-04T16:33:07;1.10;;;1.10;;
19301;SDS011;9785;59.362;12.152;2022-09-04T16:35:52;1.20;;;1.10;;
19301;SDS011;9785;59.362;12.152;2022-09-04T16:38:23;1.13;;;1.03;;
19301;SDS011;9785;59.362;12.152;2022-09-04T16:40:56;1.27;;;1.17;;
19301;SDS011;9785;59.362;12.152;2022-09-04T16:43:26;1.20;;;1.20;;
19301;SDS011;9785;59.362;12.152;2022-09-04T16:46:07;1.53;;;1.10;;
19301;SDS011;9785;59.362;12.152;2022-09-04T16:48:43;1.20;;;1.20;;
19301;SDS011;9785;59.362;12.152;2022-09-04T16:51:19;3.20;;;1.20;;
19301;SDS011;9785;59.362;12.152;2022-09-04T16:54:07;1.20;;;1.13;;
19301;SDS011;9785;59.362;12.152;2022-09-04T16:56:39;1.20;;;1.20;;
19301;SDS011;9785;59.362;12.152;2022-09-04T16:59:13;2.13;;;1.10;;
19301;SDS011;9785;59.362;12.152;2022-09-04T17:01:45;6.00;;;1.30;;
19301;SDS011;9785;59.362;12.152;2022-09-04T17:04:23;1.07;;;1.07;;
19301;SDS011;9785;59.362;12.152;2022-09-04T17:06:56;1.30;;;1.30;;
19301;SDS011;9785;59.362;12.152;2022-09-04T17:09:31;2.07;;;1.40;;
19301;SDS011;9785;59.362;12.152;2022-09-04T17:12:03;1.20;;;1.10;;